createdAt,value
2018-12-13T00:00:51.584Z,-2.13
2018-12-13T00:03:19.152Z,-2.08
2018-12-13T00:05:47.053Z,-2.06
2018-12-13T00:08:14.643Z,-2.13
2018-12-13T00:10:42.275Z,-2.01
2018-12-13T00:13:09.860Z,-1.96
2018-12-13T00:15:37.496Z,-2.00
2018-12-13T00:18:05.087Z,-1.98
2018-12-13T00:20:32.726Z,-1.94
2018-12-13T00:23:00.522Z,-1.94
2018-12-13T00:25:28.165Z,-1.94
2018-12-13T00:27:55.858Z,-1.90
2018-12-13T00:30:23.547Z,-1.94
2018-12-13T00:32:51.272Z,-1.98
2018-12-13T00:35:18.900Z,-1.95
2018-12-13T00:37:46.698Z,-1.91
2018-12-13T00:40:14.464Z,-1.94
2018-12-13T00:42:42.165Z,-1.88
2018-12-13T00:45:09.778Z,-1.89
2018-12-13T00:47:37.443Z,-1.91
2018-12-13T00:50:05.194Z,-2.53
2018-12-13T00:52:32.854Z,-1.94
2018-12-13T00:55:00.462Z,-1.99
2018-12-13T00:57:28.048Z,-2.05
2018-12-13T00:59:55.727Z,-2.04
2018-12-13T01:02:23.390Z,-2.01
2018-12-13T01:04:51.041Z,-2.02
2018-12-13T01:07:18.866Z,-1.98
2018-12-13T01:09:46.747Z,-1.90
2018-12-13T01:12:14.487Z,-1.87
2018-12-13T01:14:42.175Z,-1.87
2018-12-13T01:17:09.755Z,-2.00
2018-12-13T01:19:37.386Z,-2.10
2018-12-13T01:22:05.144Z,-2.11
2018-12-13T01:24:32.968Z,-2.02
2018-12-13T01:27:00.612Z,-2.07
2018-12-13T01:29:28.291Z,-2.12
2018-12-13T01:31:55.944Z,-2.00
2018-12-13T01:34:23.615Z,-2.06
2018-12-13T01:36:52.533Z,-2.07
2018-12-13T01:39:20.283Z,-2.08
2018-12-13T01:41:48.104Z,-2.13
2018-12-13T01:44:15.687Z,-2.13
2018-12-13T01:46:43.507Z,-2.04
2018-12-13T01:49:11.270Z,-2.00
2018-12-13T01:51:39.232Z,-1.87
2018-12-13T01:54:06.819Z,-1.85
2018-12-13T01:56:34.399Z,-1.92
2018-12-13T01:59:02.017Z,-1.97
2018-12-13T02:01:29.789Z,-1.94
2018-12-13T02:03:57.425Z,-2.01
2018-12-13T02:06:25.019Z,-1.99
2018-12-13T02:08:52.774Z,-2.03
2018-12-13T02:11:20.632Z,-1.78
2018-12-13T02:13:48.233Z,-2.07
2018-12-13T02:16:15.874Z,-2.04
2018-12-13T02:18:43.586Z,-2.04
2018-12-13T02:21:11.162Z,-2.14
2018-12-13T02:23:38.787Z,-2.08
2018-12-13T02:26:06.367Z,-2.11
2018-12-13T02:28:34.042Z,-2.09
2018-12-13T02:31:01.646Z,-2.09
2018-12-13T02:33:29.212Z,-2.14
2018-12-13T02:35:56.870Z,-2.18
2018-12-13T02:38:24.490Z,-2.15
2018-12-13T02:40:52.084Z,-2.17
2018-12-13T02:43:19.718Z,-2.19
2018-12-13T02:45:47.368Z,-2.16
2018-12-13T02:48:15.061Z,-2.25
2018-12-13T02:50:42.934Z,-2.22
2018-12-13T02:53:10.793Z,-2.23
2018-12-13T02:55:38.395Z,-2.36
2018-12-13T02:58:06.029Z,-2.37
2018-12-13T03:00:33.589Z,-2.38
2018-12-13T03:03:01.360Z,-2.32
2018-12-13T03:05:28.979Z,-2.39
2018-12-13T03:07:56.605Z,-2.35
2018-12-13T03:10:24.172Z,-2.37
2018-12-13T03:12:51.821Z,-2.42
2018-12-13T03:15:19.401Z,-2.52
2018-12-13T03:17:47.036Z,-2.59
2018-12-13T03:20:15.635Z,-2.51
2018-12-13T03:22:43.234Z,-2.55
2018-12-13T03:25:11.199Z,-2.71
2018-12-13T03:27:38.880Z,-2.71
2018-12-13T03:30:06.968Z,-2.67
2018-12-13T03:32:34.628Z,-2.70
2018-12-13T03:35:02.347Z,-2.67
2018-12-13T03:37:30.017Z,-2.66
2018-12-13T03:39:57.717Z,-2.64
2018-12-13T03:42:25.479Z,-2.60
2018-12-13T03:44:53.124Z,-2.58
2018-12-13T03:47:20.787Z,-2.57
2018-12-13T03:49:48.730Z,-2.57
2018-12-13T03:52:16.346Z,-2.53
2018-12-13T03:54:43.925Z,-2.51
2018-12-13T03:57:11.567Z,-2.54
2018-12-13T03:59:39.387Z,-2.64
2018-12-13T04:02:07.160Z,-2.59
2018-12-13T04:04:34.869Z,-2.66
2018-12-13T04:07:02.568Z,-2.72
2018-12-13T04:09:30.292Z,-2.72
2018-12-13T04:11:58.045Z,-2.76
2018-12-13T04:14:25.695Z,-2.80
2018-12-13T04:16:53.742Z,-2.78
2018-12-13T04:19:21.301Z,-2.80
2018-12-13T04:21:49.005Z,-2.75
2018-12-13T04:24:16.645Z,-2.74
2018-12-13T04:26:44.230Z,-2.80
2018-12-13T04:29:12.515Z,-2.99
2018-12-13T04:31:40.370Z,-2.95
2018-12-13T04:34:08.973Z,-3.02
2018-12-13T04:36:37.653Z,-3.02
2018-12-13T04:39:07.249Z,-3.13
2018-12-13T04:41:35.112Z,-3.11
2018-12-13T04:44:03.139Z,-3.26
2018-12-13T04:46:31.781Z,-3.25
2018-12-13T04:48:59.462Z,-3.27
2018-12-13T04:51:27.679Z,-3.44
2018-12-13T04:53:55.345Z,-3.52
2018-12-13T04:56:23.002Z,-3.42
2018-12-13T04:58:51.247Z,-3.37
2018-12-13T05:01:19.850Z,-3.34
2018-12-13T05:03:47.415Z,-3.42
2018-12-13T05:06:15.047Z,-3.48
2018-12-13T05:08:42.683Z,-3.50
2018-12-13T05:11:10.338Z,-3.55
2018-12-13T05:13:37.978Z,-3.74
2018-12-13T05:16:05.603Z,-3.78
2018-12-13T05:18:33.386Z,-3.73
2018-12-13T05:21:00.992Z,-3.79
2018-12-13T05:23:28.667Z,-3.68
2018-12-13T05:25:57.024Z,-3.76
2018-12-13T05:28:24.770Z,-3.76
2018-12-13T05:30:52.871Z,-3.76
2018-12-13T05:33:22.063Z,-3.77
2018-12-13T05:35:49.689Z,-3.85
2018-12-13T05:38:17.343Z,-3.99
2018-12-13T05:40:44.970Z,-4.12
2018-12-13T05:43:13.679Z,-4.15
2018-12-13T05:45:42.020Z,-4.14
2018-12-13T05:48:09.785Z,-4.05
2018-12-13T05:50:37.544Z,-4.11
2018-12-13T05:53:05.325Z,-4.14
2018-12-13T05:55:33.073Z,-4.06
2018-12-13T05:58:01.105Z,-4.12
2018-12-13T06:00:28.889Z,-4.02
2018-12-13T06:02:56.483Z,-4.00
2018-12-13T06:05:24.168Z,-4.19
2018-12-13T06:07:55.042Z,-4.28
2018-12-13T06:10:22.246Z,-4.26
2018-12-13T06:12:49.923Z,-4.10
2018-12-13T06:15:17.729Z,-4.09
2018-12-13T06:17:45.418Z,-4.14
2018-12-13T06:20:13.395Z,-4.15
2018-12-13T06:22:42.257Z,-4.24
2018-12-13T06:25:09.864Z,-4.29
2018-12-13T06:27:37.518Z,-4.31
2018-12-13T06:30:07.658Z,-4.34
2018-12-13T06:32:36.463Z,-4.39
2018-12-13T06:35:04.695Z,-4.36
2018-12-13T06:37:32.341Z,-4.44
2018-12-13T06:40:00.010Z,-4.44
2018-12-13T06:42:29.579Z,-4.36
2018-12-13T06:44:57.167Z,-4.38
2018-12-13T06:47:25.817Z,-4.49
2018-12-13T06:49:54.643Z,-4.40
2018-12-13T06:52:22.371Z,-4.50
2018-12-13T06:54:49.984Z,-4.49
2018-12-13T06:57:17.652Z,-4.55
2018-12-13T06:59:45.262Z,-4.51
2018-12-13T07:02:13.877Z,-4.54
2018-12-13T07:04:41.489Z,-4.56
2018-12-13T07:07:09.109Z,-4.51
2018-12-13T07:09:36.734Z,-4.54
2018-12-13T07:12:04.354Z,-4.57
2018-12-13T07:14:32.060Z,-4.66
2018-12-13T07:16:59.735Z,-4.71
2018-12-13T07:19:28.321Z,-4.76
2018-12-13T07:21:55.924Z,-4.64
2018-12-13T07:24:25.112Z,-4.67
2018-12-13T07:26:53.022Z,-4.79
2018-12-13T07:29:23.720Z,-4.77
2018-12-13T07:31:51.376Z,-4.81
2018-12-13T07:34:19.093Z,-4.69
2018-12-13T07:36:46.712Z,-4.63
2018-12-13T07:39:14.359Z,-4.60
2018-12-13T07:41:42.020Z,-4.46
2018-12-13T07:44:09.636Z,-4.40
2018-12-13T07:46:37.236Z,-4.35
2018-12-13T07:49:05.062Z,-4.07
2018-12-13T07:51:32.837Z,-4.02
2018-12-13T07:54:00.580Z,-3.36
2018-12-13T07:56:29.270Z,-3.23
2018-12-13T07:58:57.092Z,-3.33
2018-12-13T08:01:24.758Z,-3.46
2018-12-13T08:03:52.539Z,-3.60
2018-12-13T08:06:20.208Z,-3.66
2018-12-13T08:08:47.865Z,-4.03
2018-12-13T08:11:15.481Z,-3.73
2018-12-13T08:13:43.057Z,-3.63
2018-12-13T08:16:11.777Z,-3.06
2018-12-13T08:18:39.407Z,-3.17
2018-12-13T08:21:07.117Z,-3.36
2018-12-13T08:23:35.677Z,-3.56
2018-12-13T08:26:03.368Z,-3.65
2018-12-13T08:28:31.065Z,-3.10
2018-12-13T08:31:00.443Z,-2.13
2018-12-13T08:33:28.128Z,-2.40
2018-12-13T08:35:55.822Z,-2.85
2018-12-13T08:38:27.338Z,-2.68
2018-12-13T08:40:55.376Z,-2.62
2018-12-13T08:43:29.310Z,-2.33
2018-12-13T08:45:57.994Z,-2.13
2018-12-13T08:48:45.225Z,-1.70
2018-12-13T08:51:14.405Z,-1.92
2018-12-13T08:53:42.736Z,-1.51
2018-12-13T08:56:10.394Z,-1.60
2018-12-13T08:58:38.046Z,-1.78
2018-12-13T09:01:05.679Z,-1.26
2018-12-13T09:03:33.286Z,-1.09
2018-12-13T09:06:01.760Z,-0.80
2018-12-13T09:08:33.667Z,-0.64
2018-12-13T09:11:00.228Z,-0.70
2018-12-13T09:13:27.803Z,-0.54
2018-12-13T09:15:55.531Z,0.01
2018-12-13T09:18:23.171Z,-0.14
2018-12-13T09:20:51.669Z,-0.23
2018-12-13T09:23:19.368Z,0.45
2018-12-13T09:25:47.093Z,0.92
2018-12-13T09:28:14.714Z,1.26
2018-12-13T09:30:42.352Z,1.19
2018-12-13T09:33:10.034Z,1.11
2018-12-13T09:35:37.599Z,0.88
2018-12-13T09:38:05.211Z,1.76
2018-12-13T09:40:32.872Z,1.73
2018-12-13T09:43:00.531Z,1.96
2018-12-13T09:45:28.134Z,2.21
2018-12-13T09:47:55.775Z,2.17
2018-12-13T09:50:23.436Z,3.29
2018-12-13T09:52:51.082Z,3.46
2018-12-13T09:55:18.685Z,3.65
2018-12-13T09:57:46.317Z,4.18
2018-12-13T10:00:13.886Z,4.26
2018-12-13T10:02:41.529Z,2.39
2018-12-13T10:05:09.162Z,2.27
2018-12-13T10:07:36.776Z,3.22
2018-12-13T10:10:04.939Z,2.90
2018-12-13T10:12:32.633Z,3.25
2018-12-13T10:15:00.221Z,4.46
2018-12-13T10:17:27.844Z,4.74
2018-12-13T10:19:56.238Z,5.21
2018-12-13T10:22:23.850Z,3.94
2018-12-13T10:24:51.488Z,3.54
2018-12-13T10:27:19.131Z,3.62
2018-12-13T10:29:46.767Z,4.02
2018-12-13T10:32:14.334Z,3.89
2018-12-13T10:34:41.997Z,4.76
2018-12-13T10:37:09.617Z,4.14
2018-12-13T10:39:37.202Z,4.44
2018-12-13T10:42:04.965Z,4.50
2018-12-13T10:44:36.469Z,4.11
2018-12-13T10:47:04.608Z,3.63
2018-12-13T10:49:32.250Z,3.42
2018-12-13T10:51:59.920Z,2.39
2018-12-13T10:54:27.587Z,2.70
2018-12-13T10:56:55.194Z,3.08
2018-12-13T10:59:22.862Z,1.85
2018-12-13T11:01:55.944Z,2.27
2018-12-13T11:04:24.522Z,3.08
2018-12-13T11:06:52.230Z,3.07
2018-12-13T11:09:19.911Z,3.50
2018-12-13T11:11:47.555Z,4.51
2018-12-13T11:14:15.439Z,4.36
2018-12-13T11:16:43.076Z,4.26
2018-12-13T11:19:11.840Z,3.73
2018-12-13T11:21:39.752Z,4.05
2018-12-13T11:24:07.547Z,4.44
2018-12-13T11:26:36.191Z,4.65
2018-12-13T11:29:18.072Z,4.57
2018-12-13T11:31:46.889Z,4.69
2018-12-13T11:34:15.411Z,3.77
2018-12-13T11:36:43.369Z,4.02
2018-12-13T11:39:11.087Z,3.91
2018-12-13T11:41:41.081Z,4.26
2018-12-13T11:44:08.865Z,4.05
2018-12-13T11:46:38.603Z,4.35
2018-12-13T11:49:11.960Z,4.08
2018-12-13T11:51:35.997Z,4.12
2018-12-13T11:54:04.668Z,4.13
2018-12-13T11:56:33.114Z,3.73
2018-12-13T11:59:00.880Z,3.69
2018-12-13T12:01:29.490Z,4.16
2018-12-13T12:03:57.127Z,4.46
2018-12-13T12:06:24.740Z,4.55
2018-12-13T12:08:52.422Z,3.74
2018-12-13T12:11:20.801Z,3.35
2018-12-13T12:13:48.500Z,4.24
2018-12-13T12:16:16.096Z,3.72
2018-12-13T12:18:44.349Z,4.76
2018-12-13T12:21:11.923Z,4.07
2018-12-13T12:23:40.685Z,4.13
2018-12-13T12:26:08.289Z,4.84
2018-12-13T12:28:37.128Z,5.22
2018-12-13T12:31:04.786Z,5.31
2018-12-13T12:33:33.003Z,4.53
2018-12-13T12:36:00.626Z,4.96
2018-12-13T12:38:28.861Z,4.52
2018-12-13T12:40:56.518Z,4.22
2018-12-13T12:43:24.168Z,4.44
2018-12-13T12:45:51.968Z,4.18
2018-12-13T12:48:19.676Z,4.77
2018-12-13T12:50:48.035Z,4.89
2018-12-13T12:53:16.103Z,5.00
2018-12-13T12:55:44.531Z,4.17
2018-12-13T12:58:12.249Z,4.14
2018-12-13T13:00:40.218Z,4.79
2018-12-13T13:03:09.270Z,4.41
2018-12-13T13:05:37.079Z,4.16
2018-12-13T13:08:04.756Z,4.14
2018-12-13T13:10:33.944Z,3.39
2018-12-13T13:13:01.525Z,3.71
2018-12-13T13:15:30.179Z,3.41
2018-12-13T13:17:58.503Z,3.34
2018-12-13T13:20:26.149Z,3.27
2018-12-13T13:22:53.793Z,3.63
2018-12-13T13:25:22.991Z,3.26
2018-12-13T13:27:50.770Z,3.16
2018-12-13T13:30:19.483Z,3.19
2018-12-13T13:32:47.119Z,2.92
2018-12-13T13:35:16.223Z,2.88
2018-12-13T13:37:44.005Z,2.82
2018-12-13T13:40:13.205Z,2.55
2018-12-13T13:42:41.905Z,2.55
2018-12-13T13:45:09.927Z,2.26
2018-12-13T13:47:37.729Z,2.35
2018-12-13T13:50:05.991Z,1.92
2018-12-13T13:52:33.687Z,2.39
2018-12-13T13:55:01.340Z,2.18
2018-12-13T13:57:28.944Z,2.07
2018-12-13T13:59:56.589Z,1.91
2018-12-13T14:02:25.132Z,1.96
2018-12-13T14:04:53.325Z,1.71
2018-12-13T14:07:21.773Z,1.45
2018-12-13T14:09:49.342Z,1.59
2018-12-13T14:12:18.696Z,1.39
2018-12-13T14:14:46.308Z,1.12
2018-12-13T14:17:14.556Z,0.94
2018-12-13T14:19:42.363Z,0.91
2018-12-13T14:22:09.932Z,0.94
2018-12-13T14:24:37.908Z,0.66
2018-12-13T14:27:05.738Z,0.85
2018-12-13T14:29:33.543Z,0.53
2018-12-13T14:32:02.368Z,0.57
2018-12-13T14:34:29.969Z,0.48
2018-12-13T14:36:57.593Z,0.42
2018-12-13T14:39:25.496Z,0.23
2018-12-13T14:41:53.275Z,0.13
2018-12-13T14:44:21.753Z,0.05
2018-12-13T14:46:49.632Z,0.03
2018-12-13T14:49:17.500Z,-0.03
2018-12-13T14:51:46.059Z,-0.05
2018-12-13T14:54:15.847Z,-0.47
2018-12-13T14:56:43.892Z,-0.38
2018-12-13T14:59:12.205Z,-0.32
2018-12-13T15:01:39.910Z,-0.35
2018-12-13T15:04:07.539Z,-0.38
2018-12-13T15:06:35.142Z,-0.40
2018-12-13T15:09:03.641Z,-0.30
2018-12-13T15:11:31.252Z,-0.59
2018-12-13T15:13:58.835Z,-0.95
2018-12-13T15:16:26.576Z,-1.13
2018-12-13T15:18:54.239Z,-0.88
2018-12-13T15:21:21.904Z,-0.81
2018-12-13T15:23:49.525Z,-0.84
2018-12-13T15:26:17.183Z,-0.83
2018-12-13T15:28:44.910Z,-0.88
2018-12-13T15:31:12.496Z,-1.07
2018-12-13T15:33:40.197Z,-1.13
2018-12-13T15:36:07.898Z,-1.17
2018-12-13T15:38:35.732Z,-1.33
2018-12-13T15:41:03.360Z,-1.43
2018-12-13T15:43:33.729Z,-1.55
2018-12-13T15:46:01.417Z,-1.68
2018-12-13T15:48:29.532Z,-1.73
2018-12-13T15:50:58.331Z,-1.77
2018-12-13T15:53:26.172Z,-1.78
2018-12-13T15:55:55.357Z,-1.85
2018-12-13T15:58:23.064Z,-1.80
2018-12-13T16:00:50.794Z,-1.80
2018-12-13T16:03:18.518Z,-1.82
2018-12-13T16:05:46.183Z,-1.94
2018-12-13T16:08:13.871Z,-2.04
2018-12-13T16:10:42.670Z,-2.01
2018-12-13T16:13:10.579Z,-2.12
2018-12-13T16:15:38.235Z,-2.10
2018-12-13T16:18:05.912Z,-2.09
2018-12-13T16:20:33.827Z,-2.17
2018-12-13T16:23:01.509Z,-2.20
2018-12-13T16:25:29.187Z,-2.25
2018-12-13T16:27:56.834Z,-2.29
2018-12-13T16:30:24.837Z,-2.28
2018-12-13T16:32:52.518Z,-2.34
2018-12-13T16:35:20.206Z,-2.32
2018-12-13T16:37:47.799Z,-2.36
2018-12-13T16:40:15.654Z,-2.37
2018-12-13T16:42:43.327Z,-2.55
2018-12-13T16:45:10.980Z,-2.61
2018-12-13T16:47:38.700Z,-2.54
2018-12-13T16:50:07.020Z,-2.58
2018-12-13T16:52:34.777Z,-2.61
2018-12-13T16:55:02.670Z,-2.60
2018-12-13T16:57:31.458Z,-2.66
2018-12-13T16:59:59.130Z,-2.71
2018-12-13T17:02:28.044Z,-2.92
2018-12-13T17:04:55.713Z,-2.73
2018-12-13T17:07:23.679Z,-2.74
2018-12-13T17:09:51.496Z,-2.75
2018-12-13T17:12:19.465Z,-2.62
2018-12-13T17:14:48.696Z,-2.72
2018-12-13T17:17:16.489Z,-2.75
2018-12-13T17:19:44.924Z,-2.72
2018-12-13T17:22:13.244Z,-2.74
2018-12-13T17:24:41.082Z,-2.88
2018-12-13T17:27:09.166Z,-2.83
2018-12-13T17:29:37.095Z,-2.73
2018-12-13T17:32:04.782Z,-2.91
2018-12-13T17:34:32.617Z,-3.03
2018-12-13T17:37:00.339Z,-3.07
2018-12-13T17:39:28.285Z,-3.18
2018-12-13T17:41:56.160Z,-3.24
2018-12-13T17:44:25.042Z,-3.47
2018-12-13T17:46:53.026Z,-3.37
2018-12-13T17:49:20.961Z,-3.18
2018-12-13T17:51:48.869Z,-3.32
2018-12-13T17:54:16.762Z,-3.45
2018-12-13T17:56:44.641Z,-3.37
2018-12-13T17:59:12.830Z,-3.37
2018-12-13T18:01:41.691Z,-3.22
2018-12-13T18:04:10.665Z,-3.22
2018-12-13T18:06:39.720Z,-3.33
2018-12-13T18:09:07.896Z,-3.44
2018-12-13T18:11:35.645Z,-3.50
2018-12-13T18:14:03.227Z,-3.56
2018-12-13T18:16:31.021Z,-3.52
2018-12-13T18:19:00.065Z,-3.58
2018-12-13T18:21:27.789Z,-3.53
2018-12-13T18:23:55.532Z,-3.68
2018-12-13T18:26:23.142Z,-3.80
2018-12-13T18:28:51.136Z,-3.81
2018-12-13T18:31:19.089Z,-3.72
2018-12-13T18:33:46.821Z,-3.73
2018-12-13T18:36:14.534Z,-3.80
2018-12-13T18:38:42.219Z,-3.90
2018-12-13T18:41:10.039Z,-3.86
2018-12-13T18:43:37.799Z,-3.80
2018-12-13T18:46:05.506Z,-3.92
2018-12-13T18:48:35.117Z,-3.89
2018-12-13T18:51:02.786Z,-3.83
2018-12-13T18:53:30.454Z,-3.88
2018-12-13T18:55:58.138Z,-3.95
2018-12-13T18:58:25.854Z,-4.08
2018-12-13T19:00:53.576Z,-4.09
2018-12-13T19:03:22.449Z,-4.03
2018-12-13T19:05:50.199Z,-4.14
2018-12-13T19:08:18.271Z,-4.12
2018-12-13T19:10:46.234Z,-4.14
2018-12-13T19:13:15.343Z,-4.17
2018-12-13T19:15:43.006Z,-4.12
2018-12-13T19:18:11.551Z,-4.18
2018-12-13T19:20:39.584Z,-4.17
2018-12-13T19:23:08.485Z,-4.15
2018-12-13T19:25:36.647Z,-4.24
2018-12-13T19:28:05.753Z,-4.18
2018-12-13T19:30:34.885Z,-4.28
2018-12-13T19:33:06.222Z,-4.12
2018-12-13T19:35:34.500Z,-4.19
2018-12-13T19:38:03.822Z,-4.19
2018-12-13T19:40:32.653Z,-4.15
2018-12-13T19:43:01.625Z,-4.10
2018-12-13T19:45:29.621Z,-3.95
2018-12-13T19:47:57.467Z,-4.02
2018-12-13T19:50:25.516Z,-4.09
2018-12-13T19:52:53.667Z,-4.09
2018-12-13T19:55:21.805Z,-4.17
2018-12-13T19:57:51.292Z,-4.33
2018-12-13T20:00:19.472Z,-4.26
2018-12-13T20:02:48.537Z,-4.25
2018-12-13T20:05:16.734Z,-4.24
2018-12-13T20:07:44.762Z,-4.37
2018-12-13T20:10:12.675Z,-4.55
2018-12-13T20:12:41.577Z,-4.56
2018-12-13T20:15:10.102Z,-4.50
2018-12-13T20:17:39.348Z,-4.46
2018-12-13T20:20:09.570Z,-4.48
2018-12-13T20:22:37.715Z,-4.43
2018-12-13T20:25:06.188Z,-4.49
2018-12-13T20:27:34.034Z,-4.49
2018-12-13T20:30:02.093Z,-4.59
2018-12-13T20:32:30.364Z,-4.62
2018-12-13T20:34:58.856Z,-4.65
2018-12-13T20:37:27.093Z,-4.66
2018-12-13T20:39:54.986Z,-4.77
2018-12-13T20:42:24.183Z,-4.83
2018-12-13T20:44:51.931Z,-5.08
2018-12-13T20:47:19.822Z,-4.96
2018-12-13T20:49:49.333Z,-4.85
2018-12-13T20:52:17.058Z,-4.74
2018-12-13T20:54:44.733Z,-4.73
2018-12-13T20:57:14.422Z,-4.73
2018-12-13T20:59:42.406Z,-4.81
2018-12-13T21:02:10.436Z,-4.96
2018-12-13T21:04:38.179Z,-4.95
2018-12-13T21:07:11.471Z,-4.82
2018-12-13T21:09:39.185Z,-4.92
2018-12-13T21:12:06.859Z,-4.90
2018-12-13T21:14:34.980Z,-4.89
2018-12-13T21:17:02.800Z,-4.96
2018-12-13T21:19:30.445Z,-5.04
2018-12-13T21:21:58.309Z,-5.06
2018-12-13T21:24:26.076Z,-5.07
2018-12-13T21:26:54.146Z,-5.03
2018-12-13T21:29:22.087Z,-5.00
2018-12-13T21:31:50.356Z,-4.92
2018-12-13T21:34:19.375Z,-4.92
2018-12-13T21:36:47.187Z,-4.86
2018-12-13T21:39:14.876Z,-4.86
2018-12-13T21:41:43.646Z,-4.85
2018-12-13T21:44:11.304Z,-4.83
2018-12-13T21:46:39.029Z,-4.77
2018-12-13T21:49:06.619Z,-4.65
2018-12-13T21:51:34.555Z,-4.56
2018-12-13T21:54:02.306Z,-4.50
2018-12-13T21:56:29.909Z,-4.58
2018-12-13T21:59:03.516Z,-4.66
2018-12-13T22:01:27.608Z,-4.56
2018-12-13T22:03:55.264Z,-4.50
2018-12-13T22:06:22.865Z,-4.71
2018-12-13T22:08:50.692Z,-4.64
2018-12-13T22:11:19.989Z,-4.67
2018-12-13T22:13:48.005Z,-4.69
2018-12-13T22:16:15.653Z,-4.60
2018-12-13T22:18:43.393Z,-4.48
2018-12-13T22:21:10.988Z,-4.65
2018-12-13T22:23:38.767Z,-4.49
2018-12-13T22:26:06.712Z,-4.56
2018-12-13T22:28:34.310Z,-4.59
2018-12-13T22:31:01.910Z,-4.58
2018-12-13T22:33:29.543Z,-4.60
2018-12-13T22:35:57.116Z,-4.64
2018-12-13T22:38:24.920Z,-4.60
2018-12-13T22:40:52.496Z,-4.55
2018-12-13T22:43:20.681Z,-4.60
2018-12-13T22:45:48.543Z,-4.64
2018-12-13T22:48:16.206Z,-4.64
2018-12-13T22:50:43.863Z,-4.75
2018-12-13T22:53:11.463Z,-4.80
2018-12-13T22:55:39.114Z,-4.74
2018-12-13T22:58:06.719Z,-4.83
2018-12-13T23:00:34.498Z,-4.85
2018-12-13T23:03:02.519Z,-4.85
2018-12-13T23:05:30.241Z,-4.93
2018-12-13T23:07:57.878Z,-4.88
2018-12-13T23:10:25.572Z,-4.92
2018-12-13T23:12:53.206Z,-4.89
2018-12-13T23:15:20.864Z,-4.82
2018-12-13T23:17:48.439Z,-4.80
2018-12-13T23:20:16.109Z,-4.88
2018-12-13T23:22:43.741Z,-4.93
2018-12-13T23:25:11.347Z,-5.02
2018-12-13T23:27:38.981Z,-4.91
2018-12-13T23:30:08.577Z,-5.03
2018-12-13T23:32:36.259Z,-5.03
2018-12-13T23:35:04.193Z,-5.13
2018-12-13T23:37:31.854Z,-5.15
2018-12-13T23:39:59.442Z,-5.15
2018-12-13T23:42:27.084Z,-5.14
2018-12-13T23:44:54.795Z,-5.07
2018-12-13T23:47:22.423Z,-5.19
2018-12-13T23:49:50.064Z,-5.20
2018-12-13T23:52:17.648Z,-5.14
2018-12-13T23:54:45.336Z,-5.37
2018-12-13T23:57:14.368Z,-5.54
2018-12-13T23:59:42.591Z,-5.54
